Time;durP1;ratioP1;P1;durP2;ratioP2;P2;SDS_P1;SDS_P2;PMS_P1;PMS_P2;Temp;Humidity;BMP_temperature;BMP_pressure;BME280_temperature;BME280_humidity;BME280_pressure;Samples;Min_cycle;Max_cycle;Signal;HPM_P1;HPM_P2
2022/03/04 04:02:09;;;;;;;28.52;12.07;;;-0.10;99.90;;;;;;5223762;23;20058;-86
2022/03/04 04:04:35;;;;;;;30.98;13.10;;;-0.20;99.90;;;;;;4978628;28;20109;-85
2022/03/04 04:07:08;;;;;;;34.40;13.43;;;-0.20;99.90;;;;;;4961896;28;20038;-88
2022/03/04 04:09:34;;;;;;;29.60;12.65;;;-0.20;99.90;;;;;;4978360;28;20100;-84
2022/03/04 04:11:59;;;;;;;31.23;12.48;;;-0.20;99.90;;;;;;4978641;28;20046;-83
2022/03/04 04:14:35;;;;;;;33.65;12.93;;;-0.30;99.90;;;;;;4995434;28;20050;-81
2022/03/04 04:17:01;;;;;;;34.88;13.48;;;-0.20;99.90;;;;;;4995299;28;20049;-81
2022/03/04 04:19:27;;;;;;;36.08;13.48;;;-0.30;99.90;;;;;;4995625;28;20078;-85
2022/03/04 04:21:53;;;;;;;35.35;13.07;;;-0.30;99.90;;;;;;4963063;28;20117;-84
2022/03/04 04:24:19;;;;;;;29.35;12.57;;;-0.30;99.90;;;;;;4978738;28;20038;-86
2022/03/04 04:26:45;;;;;;;36.08;13.65;;;-0.30;99.90;;;;;;4977994;28;20038;-83
2022/03/04 04:29:12;;;;;;;36.13;14.27;;;-0.40;99.90;;;;;;4978339;28;20105;-87
2022/03/04 04:31:38;;;;;;;33.55;13.88;;;-0.40;99.90;;;;;;4978857;28;20057;-84
2022/03/04 04:34:04;;;;;;;38.22;14.65;;;-0.40;99.90;;;;;;4978239;28;20042;-85
2022/03/04 04:36:30;;;;;;;35.05;13.88;;;-0.50;99.90;;;;;;4962039;28;20061;-83
2022/03/04 04:38:56;;;;;;;33.55;14.05;;;-0.50;99.90;;;;;;4995853;28;20049;-83
2022/03/04 04:41:22;;;;;;;37.97;13.65;;;-0.50;99.90;;;;;;4977995;28;20408;-85
2022/03/04 04:43:47;;;;;;;36.00;13.85;;;-0.60;99.90;;;;;;4978328;28;20053;-87
2022/03/04 04:46:13;;;;;;;34.13;13.98;;;-0.60;99.90;;;;;;4995707;28;20035;-86
2022/03/04 04:48:39;;;;;;;35.55;14.43;;;-0.60;99.90;;;;;;4977674;28;20042;-84
2022/03/04 04:51:06;;;;;;;35.08;14.10;;;-0.60;99.90;;;;;;4995180;28;20069;-86
2022/03/04 04:53:33;;;;;;;38.20;14.77;;;-0.60;99.90;;;;;;4978532;28;20038;-84
2022/03/04 04:55:58;;;;;;;36.80;14.63;;;-0.70;99.90;;;;;;4979292;28;20073;-85
2022/03/04 04:58:25;;;;;;;35.45;14.13;;;-0.70;99.90;;;;;;4981930;28;20053;-84
2022/03/04 05:00:53;;;;;;;35.67;13.85;;;-0.70;99.90;;;;;;4981986;28;20124;-86
2022/03/04 05:03:27;;;;;;;35.55;13.93;;;-0.80;99.90;;;;;;4981766;28;20117;-84
2022/03/04 05:05:56;;;;;;;32.53;13.02;;;-0.80;99.90;;;;;;4999184;28;20038;-85
2022/03/04 05:08:27;;;;;;;41.13;14.82;;;-0.80;99.90;;;;;;4999141;28;20039;-86
2022/03/04 05:10:54;;;;;;;36.38;14.65;;;-0.80;99.90;;;;;;4981387;28;20116;-87
2022/03/04 05:13:19;;;;;;;37.47;14.65;;;-0.90;99.90;;;;;;4965386;28;20041;-84
2022/03/04 05:15:45;;;;;;;41.00;15.38;;;-0.90;99.90;;;;;;4980896;28;20046;-85
2022/03/04 05:18:11;;;;;;;37.88;13.95;;;-0.90;99.90;;;;;;4980335;28;20046;-83
2022/03/04 05:20:37;;;;;;;39.65;14.40;;;-0.90;99.90;;;;;;4981112;28;20046;-86
2022/03/04 05:23:03;;;;;;;37.80;15.15;;;-0.90;99.90;;;;;;4998965;28;20042;-85
2022/03/04 05:25:28;;;;;;;36.88;15.07;;;-1.00;99.90;;;;;;4998690;28;20035;-82
2022/03/04 05:27:54;;;;;;;39.53;14.82;;;-1.00;99.90;;;;;;4981554;28;20046;-83
2022/03/04 05:30:20;;;;;;;39.53;14.93;;;-1.00;99.90;;;;;;4981146;28;20057;-84
2022/03/04 05:32:46;;;;;;;40.78;15.20;;;-1.00;99.90;;;;;;4998461;28;20125;-83
2022/03/04 05:35:12;;;;;;;39.08;14.38;;;-1.00;99.90;;;;;;4998866;28;20042;-85
2022/03/04 05:37:37;;;;;;;37.78;13.95;;;-1.10;99.90;;;;;;4981601;28;20053;-86
2022/03/04 05:40:04;;;;;;;34.53;14.32;;;-1.10;99.90;;;;;;4980544;28;20488;-82
2022/03/04 05:42:30;;;;;;;31.52;14.15;;;-1.10;99.90;;;;;;4981063;28;20066;-87
2022/03/04 05:44:56;;;;;;;41.80;15.45;;;-1.20;99.90;;;;;;4998295;28;20042;-86
2022/03/04 05:47:22;;;;;;;40.20;15.48;;;-1.20;99.90;;;;;;4965321;28;20100;-85
2022/03/04 05:49:48;;;;;;;37.85;15.43;;;-1.20;99.90;;;;;;4980971;28;20049;-86
2022/03/04 05:52:13;;;;;;;39.35;14.20;;;-1.20;99.90;;;;;;4964491;28;20038;-86
2022/03/04 05:54:39;;;;;;;38.95;15.02;;;-1.20;99.90;;;;;;4980766;28;20128;-84
2022/03/04 05:57:06;;;;;;;40.80;14.50;;;-1.30;99.90;;;;;;4980365;28;20102;-83
2022/03/04 05:59:32;;;;;;;44.22;16.17;;;-1.30;99.90;;;;;;4998062;28;20038;-86
2022/03/04 06:01:57;;;;;;;42.78;15.27;;;-1.30;99.90;;;;;;4998149;28;20446;-86
2022/03/04 06:04:24;;;;;;;42.97;15.63;;;-1.30;99.90;;;;;;4963639;28;20073;-82
2022/03/04 06:06:49;;;;;;;44.85;16.70;;;-1.30;99.90;;;;;;4979624;28;20083;-85
2022/03/04 06:09:15;;;;;;;42.28;15.55;;;-1.20;99.90;;;;;;4964244;28;20099;-85
2022/03/04 06:11:41;;;;;;;46.63;17.65;;;-1.20;99.90;;;;;;4980755;28;20075;-84
2022/03/04 06:14:06;;;;;;;46.63;17.17;;;-1.20;99.90;;;;;;4980635;28;20072;-85
2022/03/04 06:16:32;;;;;;;51.15;17.15;;;-1.20;99.90;;;;;;4980477;28;20050;-83
2022/03/04 06:18:58;;;;;;;53.75;18.15;;;-1.10;99.90;;;;;;4980208;28;20050;-85
2022/03/04 06:21:24;;;;;;;51.22;16.95;;;-1.10;99.90;;;;;;4980962;28;20046;-87
2022/03/04 06:23:50;;;;;;;45.15;16.63;;;-1.10;99.90;;;;;;4997996;28;20045;-84
2022/03/04 06:26:16;;;;;;;52.92;18.17;;;-1.00;99.90;;;;;;4980065;28;20460;-84
2022/03/04 06:28:43;;;;;;;54.47;19.45;;;-1.00;99.90;;;;;;4963538;28;20043;-85
2022/03/04 06:31:09;;;;;;;48.65;17.90;;;-1.00;99.90;;;;;;4997852;28;20046;-85
2022/03/04 06:33:35;;;;;;;48.15;17.75;;;-0.90;99.90;;;;;;4980331;28;20368;-85
2022/03/04 06:36:04;;;;;;;49.40;18.38;;;-0.90;99.90;;;;;;4980408;28;20427;-83
2022/03/04 06:38:30;;;;;;;51.83;20.13;;;-0.90;99.90;;;;;;4980120;28;20046;-83
2022/03/04 06:40:57;;;;;;;54.55;17.92;;;-0.90;99.90;;;;;;4979835;28;20042;-83
2022/03/04 06:43:22;;;;;;;50.95;19.02;;;-0.80;99.90;;;;;;4980010;28;20069;-82
2022/03/04 06:45:48;;;;;;;53.03;19.38;;;-0.80;99.90;;;;;;4979781;28;20062;-83
2022/03/04 06:48:15;;;;;;;53.53;18.80;;;-0.80;99.90;;;;;;4963638;28;20042;-86
2022/03/04 06:50:41;;;;;;;57.28;19.48;;;-0.80;99.90;;;;;;4996999;28;20042;-85
2022/03/04 06:53:07;;;;;;;52.42;19.90;;;-0.70;99.90;;;;;;4978912;28;20038;-84
2022/03/04 06:55:33;;;;;;;51.85;18.80;;;-0.70;99.90;;;;;;4979700;28;20068;-84
2022/03/04 06:57:58;;;;;;;53.78;19.35;;;-0.60;99.90;;;;;;4996964;28;20488;-85
2022/03/04 07:00:25;;;;;;;53.95;18.63;;;-0.60;99.90;;;;;;4979706;28;20447;-84
2022/03/04 07:02:51;;;;;;;52.03;20.17;;;-0.50;99.90;;;;;;4997145;28;20038;-84
2022/03/04 07:05:17;;;;;;;50.92;18.02;;;-0.50;99.90;;;;;;4981106;28;20042;-84
2022/03/04 07:07:43;;;;;;;50.05;18.70;;;-0.50;99.90;;;;;;4979470;28;20165;-84
2022/03/04 07:10:09;;;;;;;47.13;18.63;;;-0.50;99.90;;;;;;4979585;28;20078;-85
2022/03/04 07:12:37;;;;;;;56.45;19.98;;;-0.60;99.90;;;;;;4996522;28;20353;-84
2022/03/04 07:15:03;;;;;;;54.08;19.40;;;-0.50;99.90;;;;;;4963478;28;20372;-86
2022/03/04 07:17:29;;;;;;;48.00;17.98;;;-0.50;99.90;;;;;;4978497;28;20042;-86
2022/03/04 07:19:54;;;;;;;55.33;19.63;;;-0.50;99.90;;;;;;4962492;28;20073;-85
2022/03/04 07:22:20;;;;;;;57.58;19.80;;;-0.50;99.90;;;;;;4978248;28;20484;-86
2022/03/04 07:24:46;;;;;;;56.00;19.33;;;-0.50;99.90;;;;;;4978912;28;20038;-85
2022/03/04 07:27:12;;;;;;;53.33;19.17;;;-0.50;99.90;;;;;;4979382;28;20491;-85
2022/03/04 07:29:37;;;;;;;60.28;20.33;;;-0.40;99.90;;;;;;4979702;28;20050;-84
2022/03/04 07:32:03;;;;;;;50.78;19.63;;;-0.40;99.90;;;;;;4979141;28;20056;-84
2022/03/04 07:34:29;;;;;;;51.05;19.23;;;-0.40;99.90;;;;;;4978782;28;20039;-86
2022/03/04 07:36:55;;;;;;;55.92;20.25;;;-0.30;99.90;;;;;;4995832;28;20124;-84
2022/03/04 07:39:21;;;;;;;53.65;18.98;;;-0.20;99.90;;;;;;4978855;28;20042;-86
2022/03/04 07:41:51;;;;;;;47.65;19.05;;;-0.20;99.90;;;;;;4978825;28;20563;-87
2022/03/04 07:44:17;;;;;;;52.38;19.30;;;-0.10;99.90;;;;;;4979426;28;20046;-84
2022/03/04 07:46:43;;;;;;;52.80;19.23;;;-0.20;99.90;;;;;;4978647;28;20035;-86
2022/03/04 07:49:08;;;;;;;45.15;17.38;;;-0.20;99.90;;;;;;4963572;28;20047;-85
2022/03/04 07:51:34;;;;;;;46.00;16.42;;;-0.20;99.90;;;;;;4963873;28;20403;-86
2022/03/04 07:54:00;;;;;;;47.45;18.48;;;-0.10;99.90;;;;;;4996471;28;20085;-88
2022/03/04 07:56:26;;;;;;;45.78;16.85;;;-0.20;99.90;;;;;;4996424;28;20053;-85
2022/03/04 07:58:52;;;;;;;48.80;18.35;;;-0.10;99.90;;;;;;4978626;28;20111;-84
2022/03/04 08:01:17;;;;;;;48.45;17.70;;;-0.10;99.90;;;;;;4978184;28;20042;-84
2022/03/04 08:03:43;;;;;;;49.03;19.45;;;-0.10;99.90;;;;;;4978650;28;20042;-84
2022/03/04 08:06:09;;;;;;;48.80;18.83;;;-0.10;99.90;;;;;;4977795;28;20094;-86
2022/03/04 08:08:35;;;;;;;47.53;18.63;;;-0.10;99.90;;;;;;4995917;28;20141;-87
2022/03/04 08:11:02;;;;;;;52.88;20.00;;;0.00;99.90;;;;;;4978238;28;20496;-84
2022/03/04 08:13:28;;;;;;;47.30;19.00;;;0.10;99.90;;;;;;4978612;28;20038;-86
2022/03/04 08:15:53;;;;;;;50.72;18.33;;;0.10;99.90;;;;;;4962263;28;20042;-87
2022/03/04 08:18:19;;;;;;;44.15;17.80;;;0.10;99.90;;;;;;4996207;28;20038;-86
2022/03/04 08:20:45;;;;;;;51.55;19.77;;;0.20;99.90;;;;;;4979037;28;20053;-87
2022/03/04 08:23:14;;;;;;;46.50;18.17;;;0.20;99.90;;;;;;4961890;28;20049;-85
2022/03/04 08:25:40;;;;;;;47.15;19.52;;;0.30;99.90;;;;;;4978128;28;20042;-89
2022/03/04 08:28:05;;;;;;;47.47;18.30;;;0.30;99.90;;;;;;4978464;28;20488;-83
2022/03/04 08:30:32;;;;;;;46.15;17.70;;;0.30;99.90;;;;;;4977215;28;20497;-88
2022/03/04 08:32:58;;;;;;;44.10;17.92;;;0.30;99.90;;;;;;4962441;28;20038;-87
2022/03/04 08:35:24;;;;;;;50.60;18.85;;;0.30;99.90;;;;;;4977937;28;20121;-88
2022/03/04 08:37:52;;;;;;;44.30;18.67;;;0.30;99.90;;;;;;4978446;28;20443;-84
2022/03/04 08:40:17;;;;;;;45.55;17.23;;;0.30;99.90;;;;;;4995744;28;20153;-86
2022/03/04 08:42:43;;;;;;;42.05;18.23;;;0.30;99.90;;;;;;4978262;28;20042;-86
2022/03/04 08:45:10;;;;;;;40.35;16.70;;;0.30;99.90;;;;;;4961484;28;20553;-82
2022/03/04 08:47:37;;;;;;;39.47;16.67;;;0.40;99.90;;;;;;4977344;28;20052;-88
2022/03/04 08:50:04;;;;;;;40.63;16.65;;;0.40;99.90;;;;;;4977807;28;20560;-84
2022/03/04 08:52:30;;;;;;;41.53;18.13;;;0.50;99.90;;;;;;4977962;28;20043;-82
2022/03/04 08:54:55;;;;;;;48.67;17.23;;;0.50;99.90;;;;;;4961166;28;20432;-85
2022/03/04 08:57:21;;;;;;;39.70;17.20;;;0.60;99.90;;;;;;4995508;28;20047;-84
2022/03/04 08:59:47;;;;;;;42.22;17.95;;;0.60;99.90;;;;;;4978377;28;20484;-87
2022/03/04 09:02:13;;;;;;;38.63;16.75;;;0.70;99.90;;;;;;4977865;28;20042;-82
2022/03/04 09:04:39;;;;;;;43.17;17.33;;;0.70;99.90;;;;;;4977655;28;20153;-85
2022/03/04 09:07:06;;;;;;;40.13;17.30;;;0.70;99.90;;;;;;4974263;28;20038;-87
2022/03/04 09:09:35;;;;;;;41.53;16.95;;;0.80;99.90;;;;;;4979984;28;20041;-85
2022/03/04 09:12:02;;;;;;;43.42;17.17;;;1.00;99.90;;;;;;4999810;28;20049;-85
2022/03/04 09:14:27;;;;;;;40.22;16.90;;;1.00;99.90;;;;;;4996750;28;20046;-86
2022/03/04 09:16:53;;;;;;;38.53;16.15;;;1.00;99.90;;;;;;4981078;28;20042;-83
2022/03/04 09:19:19;;;;;;;38.38;15.25;;;1.10;99.90;;;;;;4979250;28;20038;-85
2022/03/04 09:21:47;;;;;;;36.67;16.70;;;1.10;99.90;;;;;;4978590;28;20081;-88
2022/03/04 09:24:13;;;;;;;38.97;17.35;;;1.10;99.90;;;;;;4995637;28;20125;-87
2022/03/04 09:26:40;;;;;;;38.30;17.13;;;1.20;99.90;;;;;;4961864;28;20081;-85
2022/03/04 09:29:06;;;;;;;43.70;19.35;;;1.30;99.90;;;;;;4978199;28;20497;-86
2022/03/04 09:31:32;;;;;;;37.15;16.30;;;1.40;99.90;;;;;;4978997;28;20048;-87
2022/03/04 09:33:58;;;;;;;33.97;15.68;;;1.50;99.90;;;;;;4977817;28;20050;-87
2022/03/04 09:36:24;;;;;;;35.78;15.45;;;1.60;99.90;;;;;;4977445;28;20077;-88
2022/03/04 09:38:50;;;;;;;36.00;16.33;;;1.60;99.90;;;;;;4977910;28;20050;-89
2022/03/04 09:41:16;;;;;;;38.90;16.40;;;1.80;99.90;;;;;;4977710;28;20208;-85
2022/03/04 09:43:42;;;;;;;34.08;15.73;;;1.90;99.90;;;;;;4980447;28;20448;-89
2022/03/04 09:46:08;;;;;;;33.75;15.45;;;2.10;99.90;;;;;;4981860;28;20073;-88
2022/03/04 09:48:39;;;;;;;35.05;15.88;;;2.20;99.90;;;;;;4981784;28;20492;-87
2022/03/04 09:51:07;;;;;;;41.15;16.50;;;2.30;99.90;;;;;;4964937;28;20074;-87
2022/03/04 09:53:33;;;;;;;28.35;14.68;;;2.40;99.90;;;;;;4980236;28;20053;-86
2022/03/04 09:55:59;;;;;;;35.95;16.85;;;2.40;99.90;;;;;;4980848;28;20428;-86
2022/03/04 09:58:25;;;;;;;32.65;15.48;;;2.60;99.90;;;;;;4982106;28;20096;-86
2022/03/04 10:00:51;;;;;;;33.28;15.73;;;2.60;99.90;;;;;;4982404;28;20101;-86
2022/03/04 10:03:29;;;;;;;31.88;15.27;;;2.70;99.90;;;;;;4981783;28;20045;-86
2022/03/04 10:05:56;;;;;;;31.60;15.38;;;2.80;99.90;;;;;;4966006;28;20080;-87
2022/03/04 10:08:23;;;;;;;29.23;15.57;;;3.00;99.90;;;;;;4981011;28;20045;-86
2022/03/04 10:10:53;;;;;;;27.17;14.07;;;3.10;99.90;;;;;;4981656;28;20039;-87
2022/03/04 10:13:39;;;;;;;24.17;12.02;;;3.30;99.90;;;;;;4980780;28;20104;-87
2022/03/04 10:16:05;;;;;;;27.48;13.50;;;3.40;99.90;;;;;;4967481;28;20546;-87
2022/03/04 10:18:30;;;;;;;25.17;13.27;;;3.50;99.90;;;;;;4981741;28;20046;-88
2022/03/04 10:20:56;;;;;;;29.50;14.07;;;3.60;99.90;;;;;;4980224;28;20480;-87
2022/03/04 10:23:25;;;;;;;26.60;13.57;;;3.70;99.90;;;;;;4981787;28;20165;-87
2022/03/04 10:25:56;;;;;;;27.25;12.68;;;3.90;99.90;;;;;;4998087;28;20042;-88
2022/03/04 10:28:26;;;;;;;26.60;13.30;;;3.90;99.90;;;;;;4998212;28;20034;-88
2022/03/04 10:30:53;;;;;;;25.67;13.70;;;4.10;99.90;;;;;;4980523;28;20511;-86
2022/03/04 10:33:28;;;;;;;24.00;12.98;;;4.20;99.90;;;;;;4980589;28;20507;-87
2022/03/04 10:36:09;;;;;;;30.88;13.98;;;4.30;99.90;;;;;;4980072;28;20050;-89
2022/03/04 10:38:36;;;;;;;26.23;13.38;;;4.50;99.90;;;;;;4980529;28;20094;-87
2022/03/04 10:41:29;;;;;;;26.98;13.68;;;4.70;99.90;;;;;;4964012;28;20046;-88
2022/03/04 10:43:56;;;;;;;27.65;13.45;;;4.80;99.90;;;;;;4980548;28;20527;-87
2022/03/04 10:46:22;;;;;;;26.83;13.57;;;4.80;99.90;;;;;;4997945;28;20391;-87
2022/03/04 10:48:54;;;;;;;28.60;14.52;;;5.00;99.90;;;;;;4964153;28;20097;-87
2022/03/04 10:51:41;;;;;;;26.60;14.93;;;5.20;99.90;;;;;;4979818;28;20038;-86
2022/03/04 10:54:11;;;;;;;26.55;14.25;;;5.20;99.90;;;;;;4979334;28;20077;-86
2022/03/04 10:56:48;;;;;;;27.58;14.20;;;5.30;99.90;;;;;;4979617;28;20030;-87
2022/03/04 10:59:14;;;;;;;27.02;13.98;;;5.50;99.90;;;;;;4963532;28;20034;-87
2022/03/04 11:01:46;;;;;;;27.08;15.43;;;5.80;99.90;;;;;;4997086;28;20153;-88
2022/03/04 11:04:12;;;;;;;26.63;13.30;;;6.00;99.90;;;;;;4979812;28;20510;-86
2022/03/04 11:06:39;;;;;;;23.75;12.32;;;6.00;99.90;;;;;;4963838;28;20493;-88
2022/03/04 11:09:04;;;;;;;23.00;13.48;;;6.00;99.90;;;;;;4979311;28;20042;-87
2022/03/04 11:11:32;;;;;;;25.00;12.65;;;6.20;99.90;;;;;;4979591;28;20049;-87
2022/03/04 11:13:59;;;;;;;25.83;13.02;;;6.40;99.90;;;;;;4979605;28;20098;-87
2022/03/04 11:16:25;;;;;;;24.73;12.32;;;6.50;99.90;;;;;;4980058;28;20396;-88
2022/03/04 11:18:51;;;;;;;27.33;14.18;;;6.50;99.90;;;;;;4996951;28;20030;-87
2022/03/04 11:21:17;;;;;;;23.58;13.35;;;6.60;99.90;;;;;;4978874;28;20046;-88
2022/03/04 11:23:46;;;;;;;26.17;13.23;;;6.70;99.90;;;;;;4980281;28;20396;-87
2022/03/04 11:26:15;;;;;;;25.45;12.88;;;6.90;99.90;;;;;;4964004;28;20046;-88
2022/03/04 11:28:44;;;;;;;23.00;12.35;;;7.00;99.90;;;;;;4979958;28;20125;-88
2022/03/04 11:31:12;;;;;;;22.98;12.55;;;7.00;99.90;;;;;;4979701;28;20100;-86
2022/03/04 11:33:43;;;;;;;27.23;14.32;;;7.00;99.90;;;;;;4963974;28;20468;-86
2022/03/04 11:36:25;;;;;;;24.83;12.77;;;7.00;99.90;;;;;;4963712;28;20085;-86
2022/03/04 11:38:51;;;;;;;24.60;13.32;;;7.10;99.90;;;;;;4963348;28;20062;-89
2022/03/04 11:41:39;;;;;;;25.92;13.38;;;7.30;99.90;;;;;;4962895;28;20054;-85
2022/03/04 11:44:22;;;;;;;22.92;12.30;;;7.60;99.90;;;;;;4963165;28;20132;-89
2022/03/04 11:47:04;;;;;;;23.13;12.57;;;7.70;99.90;;;;;;4980079;28;20481;-88
2022/03/04 11:49:47;;;;;;;22.00;12.27;;;7.90;99.90;;;;;;4979569;28;20041;-87
2022/03/04 11:52:26;;;;;;;23.17;12.43;;;7.90;99.90;;;;;;4980272;28;20044;-87
2022/03/04 11:54:54;;;;;;;23.63;12.07;;;8.10;99.90;;;;;;4980436;28;20061;-84
2022/03/04 11:57:26;;;;;;;24.08;12.27;;;8.10;99.90;;;;;;4962312;28;20068;-85
2022/03/04 12:00:00;;;;;;;20.95;12.05;;;8.10;99.90;;;;;;4962292;28;20105;-85
2022/03/04 12:02:54;;;;;;;22.30;12.27;;;8.20;99.90;;;;;;4978119;28;20069;-85
2022/03/04 12:05:25;;;;;;;20.88;10.95;;;8.50;99.90;;;;;;4970902;28;20064;-85
2022/03/04 12:08:06;;;;;;;23.23;12.45;;;8.50;99.90;;;;;;4978545;28;20047;-86
2022/03/04 12:10:37;;;;;;;20.90;10.88;;;8.50;99.90;;;;;;4996750;28;20085;-87
2022/03/04 12:13:06;;;;;;;18.58;11.00;;;8.50;99.90;;;;;;4995811;28;20117;-88
2022/03/04 12:15:52;;;;;;;19.10;10.90;;;8.60;99.90;;;;;;4962745;28;20046;-87
2022/03/04 12:18:21;;;;;;;22.05;12.38;;;8.60;99.90;;;;;;4995425;28;20046;-86
2022/03/04 12:20:46;;;;;;;20.17;11.38;;;8.80;99.90;;;;;;4977785;28;20042;-87
2022/03/04 12:23:27;;;;;;;20.88;10.82;;;8.90;99.90;;;;;;4978444;28;20053;-86
2022/03/04 12:25:59;;;;;;;18.38;11.00;;;9.00;99.90;;;;;;4963287;28;20435;-89
2022/03/04 12:28:39;;;;;;;21.52;11.00;;;9.10;99.90;;;;;;4978826;28;20092;-86
2022/03/04 12:31:05;;;;;;;22.13;11.20;;;9.10;99.90;;;;;;4977397;28;20042;-82
2022/03/04 12:33:32;;;;;;;19.45;11.23;;;9.20;99.90;;;;;;4977094;28;20345;-82
2022/03/04 12:35:59;;;;;;;21.25;11.25;;;9.20;99.90;;;;;;4995609;28;20042;-86
2022/03/04 12:38:33;;;;;;;18.75;10.52;;;9.50;99.90;;;;;;4994415;28;20041;-83
2022/03/04 12:41:02;;;;;;;21.45;11.52;;;9.60;99.90;;;;;;4977796;28;20081;-85
2022/03/04 12:43:28;;;;;;;17.92;10.15;;;9.60;99.90;;;;;;4976729;28;20127;-87
2022/03/04 12:45:54;;;;;;;22.30;11.30;;;9.60;99.90;;;;;;4978033;28;20046;-87
2022/03/04 12:48:23;;;;;;;19.73;10.25;;;9.70;99.90;;;;;;4977579;28;20050;-87
2022/03/04 12:50:50;;;;;;;18.55;10.30;;;9.80;99.90;;;;;;4976932;28;20042;-84
2022/03/04 12:53:23;;;;;;;19.75;11.15;;;10.00;99.90;;;;;;4977865;28;20381;-84
2022/03/04 12:55:54;;;;;;;19.98;10.27;;;10.10;99.90;;;;;;4994043;28;20089;-83
2022/03/04 12:58:45;;;;;;;21.38;11.70;;;10.20;99.90;;;;;;4976158;28;20098;-85
2022/03/04 13:01:13;;;;;;;19.60;10.88;;;10.40;99.90;;;;;;4976721;28;20058;-84
2022/03/04 13:03:46;;;;;;;21.60;11.57;;;10.60;99.90;;;;;;4976735;28;20168;-83
2022/03/04 13:06:12;;;;;;;18.05;10.73;;;10.60;99.90;;;;;;4976031;28;20088;-84
2022/03/04 13:08:50;;;;;;;20.50;11.15;;;10.50;99.90;;;;;;4976035;28;20050;-84
2022/03/04 13:11:42;;;;;;;20.27;11.55;;;10.60;99.90;;;;;;4959731;28;20038;-84
2022/03/04 13:14:13;;;;;;;18.40;10.38;;;10.50;99.90;;;;;;4990793;28;20101;-81
2022/03/04 13:16:38;;;;;;;15.82;9.77;;;10.50;99.90;;;;;;4977035;28;20096;-83
2022/03/04 13:19:07;;;;;;;16.42;9.55;;;10.60;99.90;;;;;;4997464;28;20046;-82
2022/03/04 13:21:37;;;;;;;17.20;10.00;;;10.50;99.90;;;;;;4998360;28;20053;-82
2022/03/04 13:24:10;;;;;;;19.05;10.00;;;10.50;99.90;;;;;;4984652;28;20038;-82
2022/03/04 13:26:37;;;;;;;18.40;10.15;;;10.50;99.90;;;;;;4989316;28;20126;-81
2022/03/04 13:29:04;;;;;;;16.52;9.55;;;10.50;99.90;;;;;;4987732;28;20042;-82
2022/03/04 13:31:35;;;;;;;19.20;11.05;;;10.70;99.90;;;;;;5000549;28;20038;-82
2022/03/04 13:34:06;;;;;;;21.58;10.23;;;10.90;99.90;;;;;;5002647;28;20073;-82
2022/03/04 13:36:47;;;;;;;17.08;9.07;;;10.90;99.90;;;;;;4997018;28;20073;-84
2022/03/04 13:39:30;;;;;;;15.77;9.15;;;11.20;99.50;;;;;;4983056;28;20527;-83
2022/03/04 13:42:21;;;;;;;15.93;8.82;;;11.20;98.20;;;;;;4982911;28;20461;-83
2022/03/04 13:44:53;;;;;;;16.23;8.98;;;11.00;96.40;;;;;;4974202;28;20400;-83
2022/03/04 13:47:30;;;;;;;14.23;8.05;;;11.10;98.50;;;;;;4997933;28;20435;-83
2022/03/04 13:49:56;;;;;;;16.05;8.32;;;11.10;94.50;;;;;;4997831;28;20050;-82
2022/03/04 13:52:22;;;;;;;13.70;7.70;;;11.10;96.70;;;;;;4997158;28;20092;-84
2022/03/04 13:54:58;;;;;;;14.35;8.38;;;11.20;97.00;;;;;;4980190;28;20034;-82
2022/03/04 13:57:26;;;;;;;;;;;11.20;94.20;;;;;;4999883;28;20160;-82
2022/03/04 13:59:52;;;;;;;13.52;7.40;;;11.10;90.60;;;;;;4980809;28;19984;-82
2022/03/04 14:02:18;;;;;;;13.50;7.22;;;11.30;94.90;;;;;;4964522;28;20042;-82
2022/03/04 14:04:54;;;;;;;13.23;7.82;;;11.40;93.70;;;;;;4998195;28;20117;-83
2022/03/04 14:07:20;;;;;;;13.15;7.75;;;11.40;90.80;;;;;;4964384;28;20089;-83
2022/03/04 14:09:49;;;;;;;13.70;7.40;;;11.30;91.10;;;;;;4980399;28;20452;-82
2022/03/04 14:12:15;;;;;;;12.30;7.28;;;11.50;91.90;;;;;;4979122;28;20056;-82
2022/03/04 14:14:41;;;;;;;11.15;6.55;;;11.50;91.70;;;;;;4996997;28;20040;-82
2022/03/04 14:17:07;;;;;;;12.32;7.22;;;11.50;90.00;;;;;;4963676;28;20053;-83
2022/03/04 14:19:33;;;;;;;11.15;6.82;;;11.40;87.80;;;;;;4979967;28;20441;-82
2022/03/04 14:21:59;;;;;;;13.13;6.85;;;11.40;87.30;;;;;;4979354;28;20080;-85
2022/03/04 14:24:24;;;;;;;12.20;6.82;;;11.40;86.30;;;;;;4998003;28;20129;-84
2022/03/04 14:26:50;;;;;;;12.57;7.40;;;11.40;87.20;;;;;;4963809;28;20030;-82
2022/03/04 14:29:20;;;;;;;12.15;7.32;;;11.40;87.20;;;;;;4978821;28;20090;-83
2022/03/04 14:31:47;;;;;;;12.57;7.07;;;11.50;86.80;;;;;;4979341;28;20512;-82
2022/03/04 14:34:13;;;;;;;12.10;7.05;;;11.60;87.30;;;;;;4996908;28;20038;-83
2022/03/04 14:36:38;;;;;;;12.63;7.15;;;11.70;87.10;;;;;;4978836;28;20046;-83
2022/03/04 14:39:04;;;;;;;12.32;7.07;;;11.80;86.90;;;;;;4979477;28;20050;-83
2022/03/04 14:41:30;;;;;;;14.55;7.50;;;11.70;84.90;;;;;;4979175;28;20042;-83
2022/03/04 14:43:56;;;;;;;13.20;7.13;;;11.70;84.30;;;;;;4996772;28;20046;-83
2022/03/04 14:46:25;;;;;;;13.90;7.63;;;11.80;85.00;;;;;;4978804;28;20046;-83
2022/03/04 14:48:53;;;;;;;13.40;7.70;;;11.80;84.60;;;;;;4978972;28;20081;-83
2022/03/04 14:51:19;;;;;;;12.40;7.20;;;11.80;85.40;;;;;;4996827;28;20049;-83
2022/03/04 14:53:45;;;;;;;14.85;8.25;;;11.90;85.40;;;;;;4979521;28;20038;-84
2022/03/04 14:56:11;;;;;;;16.48;9.40;;;11.80;84.70;;;;;;4996725;28;20034;-83
2022/03/04 14:58:36;;;;;;;14.18;8.45;;;11.70;84.00;;;;;;4996105;28;20508;-82
2022/03/04 15:01:02;;;;;;;15.00;8.32;;;11.70;84.80;;;;;;4978524;28;20057;-83
2022/03/04 15:03:28;;;;;;;15.73;8.43;;;11.60;85.70;;;;;;4996072;28;20117;-83
2022/03/04 15:05:54;;;;;;;17.23;8.30;;;11.70;86.60;;;;;;4979056;28;20046;-83
2022/03/04 15:08:20;;;;;;;14.93;8.57;;;11.70;86.00;;;;;;4997193;28;20393;-83
2022/03/04 15:10:45;;;;;;;18.27;8.90;;;11.70;86.50;;;;;;4978729;28;20045;-83
2022/03/04 15:13:11;;;;;;;14.10;8.52;;;11.80;86.20;;;;;;4978926;28;20038;-83
2022/03/04 15:15:37;;;;;;;16.70;9.02;;;11.80;85.00;;;;;;4979175;28;20047;-83
2022/03/04 15:18:03;;;;;;;15.57;8.68;;;11.70;83.70;;;;;;4995847;28;20038;-83
2022/03/04 15:20:29;;;;;;;15.48;8.50;;;11.60;82.20;;;;;;4978633;28;20054;-84
2022/03/04 15:22:55;;;;;;;14.65;8.65;;;11.60;82.10;;;;;;4963275;28;20518;-83
2022/03/04 15:25:20;;;;;;;17.25;9.40;;;11.50;82.20;;;;;;4979179;28;20050;-83
2022/03/04 15:27:48;;;;;;;15.65;9.10;;;11.50;82.90;;;;;;4963315;28;20500;-83
2022/03/04 15:30:14;;;;;;;14.98;8.27;;;11.60;82.30;;;;;;4996584;28;20070;-85
2022/03/04 15:32:41;;;;;;;17.70;10.27;;;11.60;81.40;;;;;;4962384;28;20061;-83
2022/03/04 15:35:07;;;;;;;17.48;9.60;;;11.80;82.10;;;;;;4980184;28;20384;-84
2022/03/04 15:37:33;;;;;;;16.00;9.00;;;11.90;82.80;;;;;;4962879;28;20058;-83
2022/03/04 15:39:59;;;;;;;14.65;8.65;;;12.00;82.50;;;;;;4996158;28;20050;-84
2022/03/04 15:42:25;;;;;;;15.93;9.30;;;12.00;81.90;;;;;;4997711;28;20497;-83
2022/03/04 15:44:55;;;;;;;19.58;9.63;;;12.00;82.20;;;;;;4979069;28;20050;-83
2022/03/04 15:47:21;;;;;;;18.02;10.13;;;12.00;82.80;;;;;;4978622;28;20050;-83
2022/03/04 15:49:48;;;;;;;16.00;9.43;;;12.00;83.20;;;;;;4978649;28;20106;-84
2022/03/04 15:52:14;;;;;;;17.52;9.57;;;12.00;83.30;;;;;;4996062;28;20042;-83
2022/03/04 15:54:39;;;;;;;17.85;9.73;;;11.90;84.00;;;;;;4996040;28;20113;-83
2022/03/04 15:57:05;;;;;;;16.35;8.98;;;11.70;84.60;;;;;;4978029;28;20114;-84
2022/03/04 15:59:31;;;;;;;16.52;9.38;;;11.60;86.60;;;;;;4995153;28;20038;-84
2022/03/04 16:01:56;;;;;;;19.08;10.43;;;11.60;87.90;;;;;;4995076;28;20038;-83
2022/03/04 16:04:22;;;;;;;17.27;9.02;;;11.80;87.80;;;;;;4976926;28;20326;-83
2022/03/04 16:06:49;;;;;;;13.68;8.65;;;11.90;87.50;;;;;;4994684;28;20039;-84
2022/03/04 16:09:15;;;;;;;16.65;9.25;;;12.00;85.70;;;;;;4994236;28;20500;-83
2022/03/04 16:11:41;;;;;;;16.27;8.88;;;12.10;85.70;;;;;;4994414;28;20081;-84
2022/03/04 16:14:07;;;;;;;15.52;8.57;;;12.10;86.10;;;;;;4977340;28;20120;-84
2022/03/04 16:16:34;;;;;;;14.77;9.00;;;12.20;86.30;;;;;;4995918;28;20088;-83
2022/03/04 16:19:02;;;;;;;15.25;9.25;;;12.10;86.20;;;;;;4978182;28;20050;-85
2022/03/04 16:21:28;;;;;;;16.42;9.23;;;12.00;85.70;;;;;;4978274;28;20056;-85
2022/03/04 16:23:54;;;;;;;15.73;8.93;;;11.90;85.20;;;;;;4978874;28;20042;-82
2022/03/04 16:26:19;;;;;;;16.63;9.85;;;11.70;84.70;;;;;;4962396;28;20455;-83
2022/03/04 16:28:45;;;;;;;17.13;10.13;;;11.50;86.00;;;;;;4978347;28;20042;-83
2022/03/04 16:31:12;;;;;;;17.95;10.02;;;11.20;86.70;;;;;;4996823;28;20121;-83
2022/03/04 16:33:39;;;;;;;22.73;11.07;;;11.00;87.20;;;;;;4979267;28;20050;-83
2022/03/04 16:36:05;;;;;;;18.35;10.60;;;10.50;88.50;;;;;;4996886;28;20413;-84
2022/03/04 16:38:31;;;;;;;20.10;11.30;;;10.20;90.30;;;;;;4979077;28;20039;-83